createdAt,value
2023-08-17T00:00:15.418Z,17.3
2023-08-17T00:01:28.601Z,17.3
2023-08-17T00:02:41.646Z,17.3
2023-08-17T00:03:54.638Z,17.3
2023-08-17T00:05:07.582Z,17.3
2023-08-17T00:06:20.539Z,17.1
2023-08-17T00:07:33.600Z,17.1
2023-08-17T00:08:46.252Z,17.1
2023-08-17T00:09:59.604Z,17.1
2023-08-17T00:11:12.571Z,17.1
2023-08-17T00:12:25.608Z,17.1
2023-08-17T00:13:38.664Z,17.1
2023-08-17T00:14:51.588Z,17.1
2023-08-17T00:16:04.613Z,17.1
2023-08-17T00:17:17.623Z,17.1
2023-08-17T00:18:30.530Z,17.1
2023-08-17T00:19:43.629Z,17.1
2023-08-17T00:20:56.756Z,17.1
2023-08-17T00:22:09.560Z,17.1
2023-08-17T00:23:22.536Z,16.9
2023-08-17T00:24:35.682Z,16.9
2023-08-17T00:25:48.609Z,16.9
2023-08-17T00:27:01.554Z,16.9
2023-08-17T00:28:14.618Z,16.9
2023-08-17T00:29:27.635Z,16.9
2023-08-17T00:30:40.603Z,16.9
2023-08-17T00:31:53.687Z,16.9
2023-08-17T00:33:06.613Z,16.9
2023-08-17T00:34:19.618Z,16.9
2023-08-17T00:35:32.559Z,16.9
2023-08-17T00:36:45.562Z,16.9
2023-08-17T00:37:58.502Z,16.9
2023-08-17T00:39:11.754Z,16.9
2023-08-17T00:40:24.548Z,16.9
2023-08-17T00:41:37.639Z,16.9
2023-08-17T00:42:50.734Z,16.9
2023-08-17T00:44:03.585Z,16.9
2023-08-17T00:45:16.690Z,16.9
2023-08-17T00:46:29.691Z,16.9
2023-08-17T00:47:42.605Z,16.9
2023-08-17T00:48:55.590Z,16.9
2023-08-17T00:50:08.572Z,16.9
2023-08-17T00:51:21.550Z,16.8
2023-08-17T00:52:34.622Z,16.8
2023-08-17T00:53:47.564Z,16.8
2023-08-17T00:55:00.532Z,16.8
2023-08-17T00:56:13.589Z,16.8
2023-08-17T00:57:26.683Z,16.8
2023-08-17T00:58:39.577Z,16.8
2023-08-17T01:00:03.507Z,16.8
2023-08-17T01:01:05.570Z,16.8
2023-08-17T01:02:18.608Z,16.8
2023-08-17T01:03:31.565Z,16.8
2023-08-17T01:04:44.713Z,16.8
2023-08-17T01:05:57.612Z,16.8
2023-08-17T01:07:10.564Z,16.8
2023-08-17T01:08:23.606Z,16.8
2023-08-17T01:09:36.568Z,16.8
2023-08-17T01:10:49.573Z,16.8
2023-08-17T01:12:02.657Z,16.8
2023-08-17T01:13:15.656Z,16.8
2023-08-17T01:14:28.530Z,16.7
2023-08-17T01:15:41.828Z,16.6
2023-08-17T01:16:54.688Z,16.6
2023-08-17T01:18:07.795Z,16.6
2023-08-17T01:19:20.563Z,16.6
2023-08-17T01:20:33.575Z,16.6
2023-08-17T01:21:46.638Z,16.6
2023-08-17T01:22:59.667Z,16.6
2023-08-17T01:24:12.589Z,16.6
2023-08-17T01:25:25.740Z,16.6
2023-08-17T01:26:38.555Z,16.6
2023-08-17T01:27:51.616Z,16.6
2023-08-17T01:29:04.549Z,16.6
2023-08-17T01:30:17.621Z,16.6
2023-08-17T01:31:30.380Z,16.6
2023-08-17T01:32:43.622Z,16.6
2023-08-17T01:33:56.556Z,16.6
2023-08-17T01:35:09.684Z,16.6
2023-08-17T01:36:22.603Z,16.6
2023-08-17T01:37:35.562Z,16.6
2023-08-17T01:38:48.612Z,16.6
2023-08-17T01:40:01.550Z,16.6
2023-08-17T01:41:14.655Z,16.6
2023-08-17T01:42:27.251Z,16.6
2023-08-17T01:43:40.560Z,16.6
2023-08-17T01:44:53.581Z,16.6
2023-08-17T01:46:06.608Z,16.6
2023-08-17T01:47:19.589Z,16.6
2023-08-17T01:48:32.625Z,16.6
2023-08-17T01:49:45.629Z,16.6
2023-08-17T01:50:58.598Z,16.6
2023-08-17T01:52:11.553Z,16.6
2023-08-17T01:53:24.679Z,16.6
2023-08-17T01:54:37.684Z,16.6
2023-08-17T01:55:51.712Z,16.6
2023-08-17T01:57:03.561Z,16.6
2023-08-17T01:58:16.579Z,16.6
2023-08-17T01:59:29.552Z,16.6
2023-08-17T02:00:42.566Z,16.6
2023-08-17T02:01:55.570Z,16.6
2023-08-17T02:03:08.698Z,16.6
2023-08-17T02:04:21.563Z,16.6
2023-08-17T02:05:34.539Z,16.6
2023-08-17T02:06:47.598Z,16.6
2023-08-17T02:08:00.535Z,16.6
2023-08-17T02:09:13.569Z,16.6
2023-08-17T02:10:26.647Z,16.6
2023-08-17T02:11:39.604Z,16.6
2023-08-17T02:12:56.734Z,16.6
2023-08-17T02:14:05.567Z,16.6
2023-08-17T02:15:18.595Z,16.6
2023-08-17T02:16:31.572Z,16.6
2023-08-17T02:17:44.603Z,16.6
2023-08-17T02:18:57.564Z,16.6
2023-08-17T02:20:10.580Z,16.6
2023-08-17T02:21:23.560Z,16.6
2023-08-17T02:22:36.570Z,16.6
2023-08-17T02:23:49.678Z,16.6
2023-08-17T02:25:02.552Z,16.6
2023-08-17T02:26:15.564Z,16.6
2023-08-17T02:27:28.627Z,16.6
2023-08-17T02:28:41.621Z,16.6
2023-08-17T02:29:54.617Z,16.6
2023-08-17T02:31:07.675Z,16.6
2023-08-17T02:32:20.248Z,16.6
2023-08-17T02:33:33.853Z,16.6
2023-08-17T02:34:46.588Z,16.4
2023-08-17T02:35:59.758Z,16.4
2023-08-17T02:37:12.598Z,16.4
2023-08-17T02:38:25.618Z,16.4
2023-08-17T02:39:38.592Z,16.4
2023-08-17T02:40:51.632Z,16.4
2023-08-17T02:42:04.661Z,16.4
2023-08-17T02:43:17.754Z,16.4
2023-08-17T02:44:30.535Z,16.4
2023-08-17T02:45:43.578Z,16.4
2023-08-17T02:46:56.585Z,16.4
2023-08-17T02:48:09.679Z,16.4
2023-08-17T02:49:22.564Z,16.4
2023-08-17T02:50:35.558Z,16.4
2023-08-17T02:51:48.630Z,16.4
2023-08-17T02:53:01.598Z,16.4
2023-08-17T02:54:14.574Z,16.4
2023-08-17T02:55:27.679Z,16.4
2023-08-17T02:56:40.590Z,16.4
2023-08-17T02:57:53.579Z,16.4
2023-08-17T02:59:06.559Z,16.4
2023-08-17T03:00:19.604Z,16.4
2023-08-17T03:01:32.684Z,16.4
2023-08-17T03:02:45.769Z,16.4
2023-08-17T03:03:58.663Z,16.4
2023-08-17T03:05:11.710Z,16.4
2023-08-17T03:06:24.576Z,16.4
2023-08-17T03:07:37.408Z,16.4
2023-08-17T03:08:50.605Z,16.4
2023-08-17T03:10:03.575Z,16.4
2023-08-17T03:11:16.548Z,16.4
2023-08-17T03:12:29.738Z,16.4
2023-08-17T03:13:42.562Z,16.4
2023-08-17T03:14:55.621Z,16.4
2023-08-17T03:16:08.599Z,16.4
2023-08-17T03:17:21.643Z,16.4
2023-08-17T03:18:34.608Z,16.4
2023-08-17T03:19:47.615Z,16.4
2023-08-17T03:21:00.583Z,16.4
2023-08-17T03:22:13.595Z,16.4
2023-08-17T03:23:26.760Z,16.4
2023-08-17T03:24:39.565Z,16.4
2023-08-17T03:25:52.572Z,16.4
2023-08-17T03:27:05.577Z,16.4
2023-08-17T03:28:18.605Z,16.4
2023-08-17T03:29:31.578Z,16.4
2023-08-17T03:30:44.634Z,16.4
2023-08-17T03:31:57.780Z,16.4
2023-08-17T03:33:10.703Z,16.4
2023-08-17T03:34:23.671Z,16.4
2023-08-17T03:35:36.586Z,16.4
2023-08-17T03:36:49.467Z,16.4
2023-08-17T03:38:02.617Z,16.4
2023-08-17T03:39:15.567Z,16.4
2023-08-17T03:40:28.588Z,16.4
2023-08-17T03:41:41.575Z,16.4
2023-08-17T03:42:54.771Z,16.4
2023-08-17T03:44:07.724Z,16.4
2023-08-17T03:45:20.648Z,16.4
2023-08-17T03:46:33.605Z,16.4
2023-08-17T03:47:46.785Z,16.4
2023-08-17T03:48:59.631Z,16.4
2023-08-17T03:50:12.334Z,16.4
2023-08-17T03:51:26.524Z,16.4
2023-08-17T03:52:38.595Z,16.4
2023-08-17T03:53:51.764Z,16.4
2023-08-17T03:55:04.591Z,16.4
2023-08-17T03:56:17.584Z,16.4
2023-08-17T03:57:31.510Z,16.4
2023-08-17T03:58:43.627Z,16.3
2023-08-17T03:59:56.575Z,16.3
2023-08-17T04:01:09.589Z,16.3
2023-08-17T04:02:22.640Z,16.3
2023-08-17T04:03:35.662Z,16.3
2023-08-17T04:04:48.622Z,16.3
2023-08-17T04:06:01.580Z,16.3
2023-08-17T04:07:14.754Z,16.3
2023-08-17T04:08:27.598Z,16.3
2023-08-17T04:09:40.630Z,16.3
2023-08-17T04:10:53.598Z,16.3
2023-08-17T04:12:06.597Z,16.3
2023-08-17T04:13:19.621Z,16.3
2023-08-17T04:14:32.654Z,16.3
2023-08-17T04:15:45.573Z,16.3
2023-08-17T04:16:58.625Z,16.3
2023-08-17T04:18:11.623Z,16.3
2023-08-17T04:19:24.616Z,16.3
2023-08-17T04:20:37.580Z,16.3
2023-08-17T04:21:50.578Z,16.3
2023-08-17T04:23:03.582Z,16.3
2023-08-17T04:24:16.684Z,16.3
2023-08-17T04:25:29.764Z,16.3
2023-08-17T04:26:42.586Z,16.3
2023-08-17T04:27:55.611Z,16.3
2023-08-17T04:29:08.628Z,16.3
2023-08-17T04:30:21.625Z,16.3
2023-08-17T04:31:34.618Z,16.3
2023-08-17T04:32:47.577Z,16.3
2023-08-17T04:34:00.543Z,16.3
2023-08-17T04:35:13.591Z,16.3
2023-08-17T04:36:26.649Z,16.3
2023-08-17T04:37:39.598Z,16.3
2023-08-17T04:38:52.632Z,16.3
2023-08-17T04:40:05.624Z,16.3
2023-08-17T04:41:18.650Z,16.3
2023-08-17T04:42:31.599Z,16.3
2023-08-17T04:43:44.658Z,16.3
2023-08-17T04:44:57.578Z,16.3
2023-08-17T04:46:10.747Z,16.3
2023-08-17T04:47:23.802Z,16.3
2023-08-17T04:48:36.544Z,16.3
2023-08-17T04:49:49.758Z,16.3
2023-08-17T04:51:02.766Z,16.3
2023-08-17T04:52:15.755Z,16.3
2023-08-17T04:53:28.601Z,16.3
2023-08-17T04:54:41.672Z,16.3
2023-08-17T04:55:54.675Z,16.3
2023-08-17T04:57:07.214Z,16.3
2023-08-17T04:58:20.230Z,16.3
2023-08-17T04:59:33.245Z,16.3
2023-08-17T05:00:46.380Z,16.3
2023-08-17T05:01:59.078Z,16.3
2023-08-17T05:03:20.369Z,16.3
2023-08-17T05:04:25.265Z,16.3
2023-08-17T05:05:38.326Z,16.3
2023-08-17T05:06:51.213Z,16.3
2023-08-17T05:08:04.300Z,16.3
2023-08-17T05:09:17.294Z,16.3
2023-08-17T05:10:30.354Z,16.3
2023-08-17T05:11:43.217Z,16.3
2023-08-17T05:12:56.212Z,16.3
2023-08-17T05:14:09.287Z,16.3
2023-08-17T05:15:22.206Z,16.3
2023-08-17T05:16:35.203Z,16.3
2023-08-17T05:17:48.297Z,16.3
2023-08-17T05:19:01.223Z,16.3
2023-08-17T05:20:14.245Z,16.3
2023-08-17T05:21:27.245Z,16.3
2023-08-17T05:22:40.252Z,16.3
2023-08-17T05:23:53.235Z,16.3
2023-08-17T05:25:06.220Z,16.3
2023-08-17T05:26:19.273Z,16.4
2023-08-17T05:27:32.393Z,16.4
2023-08-17T05:28:45.098Z,16.4
2023-08-17T05:29:58.220Z,16.4
2023-08-17T05:31:11.242Z,16.4
2023-08-17T05:32:24.243Z,16.4
2023-08-17T05:33:37.286Z,16.4
2023-08-17T05:34:50.323Z,16.4
2023-08-17T05:36:03.216Z,16.4
2023-08-17T05:37:16.291Z,16.4
2023-08-17T05:38:29.240Z,16.4
2023-08-17T05:39:42.330Z,16.4
2023-08-17T05:40:55.225Z,16.4
2023-08-17T05:42:08.214Z,16.4
2023-08-17T05:43:21.211Z,16.4
2023-08-17T05:44:34.248Z,16.4
2023-08-17T05:45:47.277Z,16.4
2023-08-17T05:47:00.255Z,16.4
2023-08-17T05:48:13.336Z,16.4
2023-08-17T05:49:26.307Z,16.4
2023-08-17T05:50:39.208Z,16.4
2023-08-17T05:51:52.221Z,16.4
2023-08-17T05:53:05.295Z,16.4
2023-08-17T05:54:18.262Z,16.4
2023-08-17T05:55:31.233Z,16.4
2023-08-17T05:56:44.208Z,16.4
2023-08-17T05:57:57.215Z,16.4
2023-08-17T05:59:10.428Z,16.4
2023-08-17T06:00:23.242Z,16.4
2023-08-17T06:01:36.381Z,16.4
2023-08-17T06:02:49.271Z,16.4
2023-08-17T06:04:03.107Z,16.4
2023-08-17T06:05:15.244Z,16.4
2023-08-17T06:06:28.292Z,16.6
2023-08-17T06:07:41.365Z,16.6
2023-08-17T06:08:54.186Z,16.6
2023-08-17T06:10:07.224Z,16.6
2023-08-17T06:11:20.216Z,16.6
2023-08-17T06:12:33.248Z,16.6
2023-08-17T06:13:46.221Z,16.6
2023-08-17T06:14:59.173Z,16.6
2023-08-17T06:16:12.357Z,16.6
2023-08-17T06:17:25.455Z,16.6
2023-08-17T06:18:38.234Z,16.6
2023-08-17T06:19:51.232Z,16.6
2023-08-17T06:21:04.241Z,16.6
2023-08-17T06:22:17.215Z,16.6
2023-08-17T06:23:30.254Z,16.6
2023-08-17T06:24:43.068Z,16.6
2023-08-17T06:25:56.158Z,16.6
2023-08-17T06:27:09.211Z,16.7
2023-08-17T06:28:22.407Z,16.8
2023-08-17T06:29:35.236Z,16.8
2023-08-17T06:30:48.225Z,16.8
2023-08-17T06:32:01.241Z,16.8
2023-08-17T06:33:14.257Z,16.8
2023-08-17T06:34:27.268Z,16.8
2023-08-17T06:35:40.205Z,16.8
2023-08-17T06:36:53.275Z,16.8
2023-08-17T06:38:06.239Z,16.8
2023-08-17T06:39:19.340Z,16.8
2023-08-17T06:40:32.204Z,16.8
2023-08-17T06:41:45.242Z,16.8
2023-08-17T06:42:58.198Z,16.8
2023-08-17T06:44:11.236Z,16.8
2023-08-17T06:45:24.308Z,16.8
2023-08-17T06:46:37.312Z,16.8
2023-08-17T06:47:50.306Z,16.8
2023-08-17T06:49:03.232Z,16.8
2023-08-17T06:50:16.213Z,16.8
2023-08-17T06:51:29.341Z,16.9
2023-08-17T06:52:42.282Z,16.9
2023-08-17T06:53:55.246Z,16.9
2023-08-17T06:55:08.250Z,16.9
2023-08-17T06:56:21.379Z,16.9
2023-08-17T06:57:34.300Z,16.9
2023-08-17T06:58:47.235Z,16.9
2023-08-17T07:00:00.376Z,16.9
2023-08-17T07:01:13.213Z,16.9
2023-08-17T07:02:28.852Z,16.9
2023-08-17T07:03:39.216Z,16.9
2023-08-17T07:04:52.283Z,16.9
2023-08-17T07:06:05.199Z,16.9
2023-08-17T07:07:18.207Z,16.9
2023-08-17T07:08:31.387Z,16.9
2023-08-17T07:09:44.206Z,16.9
2023-08-17T07:10:57.326Z,16.9
2023-08-17T07:12:10.239Z,17
2023-08-17T07:13:23.277Z,17.1
2023-08-17T07:14:36.164Z,17.1
2023-08-17T07:15:49.404Z,17.1
2023-08-17T07:17:02.200Z,17.1
2023-08-17T07:18:15.402Z,17.1
2023-08-17T07:19:45.560Z,17.1
2023-08-17T07:20:41.314Z,17.1
2023-08-17T07:21:54.240Z,17.1
2023-08-17T07:23:07.868Z,17.3
2023-08-17T07:24:20.372Z,17.3
2023-08-17T07:25:33.255Z,17.3
2023-08-17T07:26:46.296Z,17.2
2023-08-17T07:27:59.308Z,17.2
2023-08-17T07:29:12.294Z,17.2
2023-08-17T07:30:25.223Z,17.2
2023-08-17T07:31:38.256Z,17.2
2023-08-17T07:32:51.280Z,17.3
2023-08-17T07:34:04.092Z,17.4
2023-08-17T07:35:17.173Z,17.4
2023-08-17T07:36:30.202Z,17.4
2023-08-17T07:37:45.967Z,17.4
2023-08-17T07:38:56.228Z,17.4
2023-08-17T07:40:09.040Z,17.4
2023-08-17T07:41:22.287Z,17.4
2023-08-17T07:42:35.319Z,17.4
2023-08-17T07:43:48.077Z,17.4
2023-08-17T07:45:01.216Z,17.4
2023-08-17T07:46:14.298Z,17.4
2023-08-17T07:47:27.854Z,17.4
2023-08-17T07:48:40.384Z,17.4
2023-08-17T07:49:53.335Z,17.6
2023-08-17T07:51:06.054Z,17.6
2023-08-17T07:52:19.204Z,17.6
2023-08-17T07:53:32.184Z,17.6
2023-08-17T07:54:45.260Z,17.6
2023-08-17T07:55:58.698Z,17.5
2023-08-17T07:57:11.254Z,17.5
2023-08-17T07:58:24.287Z,17.5
2023-08-17T07:59:37.489Z,17.5
2023-08-17T08:00:50.342Z,17.6
2023-08-17T08:02:03.127Z,17.7
2023-08-17T08:03:16.547Z,17.7
2023-08-17T08:04:29.362Z,17.7
2023-08-17T08:05:42.429Z,17.7
2023-08-17T08:06:54.867Z,17.7
2023-08-17T08:08:08.236Z,17.7
2023-08-17T08:09:21.318Z,17.7
2023-08-17T08:10:34.211Z,17.7
2023-08-17T08:11:47.231Z,17.7
2023-08-17T08:13:00.203Z,17.7
2023-08-17T08:14:13.278Z,17.7
2023-08-17T08:15:26.300Z,17.7
2023-08-17T08:16:39.275Z,17.7
2023-08-17T08:17:52.195Z,17.7
2023-08-17T08:19:05.264Z,17.7
2023-08-17T08:20:18.220Z,17.7
2023-08-17T08:21:31.208Z,17.7
2023-08-17T08:22:44.427Z,17.7
2023-08-17T08:23:57.180Z,17.9
2023-08-17T08:25:10.273Z,17.9
2023-08-17T08:26:23.187Z,17.9
2023-08-17T08:27:36.240Z,17.9
2023-08-17T08:28:49.308Z,17.9
2023-08-17T08:30:02.373Z,17.9
2023-08-17T08:31:15.249Z,17.9
2023-08-17T08:32:28.579Z,17.9
2023-08-17T08:33:41.243Z,17.9
2023-08-17T08:34:54.210Z,17.9
2023-08-17T08:36:07.279Z,17.9
2023-08-17T08:37:20.230Z,17.9
2023-08-17T08:38:33.300Z,17.9
2023-08-17T08:39:46.198Z,17.9
2023-08-17T08:40:59.198Z,17.9
2023-08-17T08:42:12.224Z,17.9
2023-08-17T08:43:25.252Z,17.9
2023-08-17T08:44:38.355Z,17.9
2023-08-17T08:45:51.230Z,17.9
2023-08-17T08:47:04.522Z,17.9
2023-08-17T08:48:17.449Z,17.9
2023-08-17T08:49:30.370Z,17.9
2023-08-17T08:50:43.198Z,17.8
2023-08-17T08:51:56.194Z,17.8
2023-08-17T08:53:09.154Z,17.8
2023-08-17T08:54:22.245Z,18.1
2023-08-17T08:55:36.107Z,18.1
2023-08-17T08:56:48.519Z,18.1
2023-08-17T08:58:01.198Z,18.1
2023-08-17T08:59:14.275Z,18.1
2023-08-17T09:00:27.212Z,18.1
2023-08-17T09:01:40.251Z,18.1
2023-08-17T09:02:53.275Z,18.1
2023-08-17T09:04:06.207Z,18.1
2023-08-17T09:05:19.307Z,18.1
2023-08-17T09:06:32.199Z,18.1
2023-08-17T09:07:45.232Z,18.1
2023-08-17T09:08:58.308Z,18.1
2023-08-17T09:10:11.174Z,18.1
2023-08-17T09:11:24.192Z,18.1
2023-08-17T09:12:40.700Z,18.1
2023-08-17T09:13:53.691Z,18.1
2023-08-17T09:15:03.263Z,18.1
2023-08-17T09:16:16.231Z,18.1
2023-08-17T09:17:29.212Z,18.2
2023-08-17T09:18:42.374Z,18.2
2023-08-17T09:19:55.228Z,18.2
2023-08-17T09:21:08.221Z,18.2
2023-08-17T09:22:21.239Z,18.2
2023-08-17T09:23:37.141Z,18.2
2023-08-17T09:24:47.274Z,18.2
2023-08-17T09:26:05.763Z,18.2
2023-08-17T09:27:13.157Z,18.2
2023-08-17T09:28:26.304Z,18.2
2023-08-17T09:29:39.477Z,18.2
2023-08-17T09:30:52.202Z,18.2
2023-08-17T09:32:05.333Z,18.2
2023-08-17T09:33:18.219Z,18.2
2023-08-17T09:34:31.209Z,18.2
2023-08-17T09:35:44.275Z,18.2
2023-08-17T09:36:57.220Z,18.2
2023-08-17T09:38:10.395Z,18.2
2023-08-17T09:39:23.250Z,18.2
2023-08-17T09:40:36.312Z,18.3
2023-08-17T09:41:49.352Z,18.3
2023-08-17T09:43:02.376Z,18.3
2023-08-17T09:44:15.187Z,18.3
2023-08-17T09:45:28.401Z,18.3
2023-08-17T09:46:41.305Z,18.3
2023-08-17T09:47:54.278Z,18.3
2023-08-17T09:49:07.195Z,18.3
2023-08-17T09:50:20.177Z,18.4
2023-08-17T09:51:33.270Z,18.6
2023-08-17T09:54:00.737Z,18.6
2023-08-17T09:55:12.290Z,18.6
2023-08-17T09:56:25.202Z,18.6
2023-08-17T09:57:38.199Z,18.6
2023-08-17T09:58:51.078Z,18.6
2023-08-17T10:00:04.210Z,18.6
2023-08-17T10:01:17.233Z,18.6
2023-08-17T10:02:30.350Z,18.6
2023-08-17T10:03:43.295Z,18.7
2023-08-17T10:04:56.196Z,18.7
2023-08-17T10:06:09.229Z,18.7
2023-08-17T10:07:22.164Z,18.7
2023-08-17T10:09:49.859Z,18.7
2023-08-17T10:11:01.208Z,18.7
2023-08-17T10:12:14.446Z,18.7
2023-08-17T10:13:27.237Z,18.7
2023-08-17T10:14:40.290Z,18.7
2023-08-17T10:15:53.201Z,18.8
2023-08-17T10:17:06.166Z,18.9
2023-08-17T10:18:19.182Z,18.9
2023-08-17T10:19:32.207Z,18.9
2023-08-17T10:20:45.323Z,18.9
2023-08-17T10:21:58.330Z,18.9
2023-08-17T10:23:11.210Z,18.9
2023-08-17T10:24:24.215Z,18.8
2023-08-17T10:25:37.472Z,18.8
2023-08-17T10:28:03.503Z,19
2023-08-17T10:29:17.552Z,19
2023-08-17T10:30:29.209Z,19
2023-08-17T10:31:42.322Z,19
2023-08-17T10:32:55.290Z,19
2023-08-17T10:34:08.245Z,19
2023-08-17T10:35:21.271Z,19
2023-08-17T10:36:34.276Z,19
2023-08-17T10:37:47.219Z,19
2023-08-17T10:39:00.193Z,19
2023-08-17T10:40:16.106Z,19
2023-08-17T10:41:26.324Z,19
2023-08-17T10:42:39.373Z,19
2023-08-17T10:43:52.219Z,19
2023-08-17T10:45:05.266Z,19
2023-08-17T10:46:18.234Z,19
2023-08-17T10:48:44.218Z,19
2023-08-17T10:49:57.196Z,19
2023-08-17T10:51:10.225Z,19
2023-08-17T10:52:23.377Z,19
2023-08-17T10:53:36.250Z,19
2023-08-17T10:54:49.265Z,19
2023-08-17T10:56:02.191Z,19
2023-08-17T10:57:15.270Z,19.2
2023-08-17T10:58:28.226Z,19.2
2023-08-17T10:59:41.201Z,19.2
2023-08-17T11:00:54.322Z,19.2
2023-08-17T11:02:07.217Z,19.2
2023-08-17T11:03:20.303Z,19.2
2023-08-17T11:04:33.224Z,19.2
2023-08-17T11:05:46.229Z,19.2
2023-08-17T11:06:59.394Z,19.2
2023-08-17T11:08:12.219Z,19.3
2023-08-17T11:09:25.282Z,19.3
2023-08-17T11:10:38.216Z,19.3
2023-08-17T11:11:51.207Z,19.3
2023-08-17T11:13:04.218Z,19.3
2023-08-17T11:14:17.361Z,19.3
2023-08-17T11:15:30.371Z,19.3
2023-08-17T11:16:43.302Z,19.6
2023-08-17T11:17:56.240Z,19.6
2023-08-17T11:19:13.277Z,19.6
2023-08-17T11:20:22.345Z,19.6
2023-08-17T11:21:35.226Z,19.6
2023-08-17T11:22:48.255Z,19.6
2023-08-17T11:24:01.191Z,19.7
2023-08-17T11:25:14.261Z,19.7
2023-08-17T11:26:27.229Z,19.7
2023-08-17T11:27:40.333Z,19.7
2023-08-17T11:28:53.279Z,19.8
2023-08-17T11:30:06.208Z,19.8
2023-08-17T11:31:19.602Z,19.8
2023-08-17T11:32:32.279Z,19.8
2023-08-17T11:33:45.394Z,19.8
2023-08-17T11:34:59.932Z,19.8
2023-08-17T11:36:11.495Z,19.9
2023-08-17T11:37:24.675Z,20.1
2023-08-17T11:38:37.274Z,20
2023-08-17T11:39:50.272Z,20
2023-08-17T11:41:03.307Z,20
2023-08-17T11:42:20.009Z,20
2023-08-17T11:43:29.238Z,20
2023-08-17T11:44:42.191Z,20
2023-08-17T11:45:55.264Z,20
2023-08-17T11:47:08.289Z,20
2023-08-17T11:48:21.397Z,20.1
2023-08-17T11:49:38.336Z,20.2
2023-08-17T11:50:47.301Z,20.2
2023-08-17T11:52:00.232Z,20.3
2023-08-17T11:53:13.274Z,20.4
2023-08-17T11:54:26.369Z,20.4
2023-08-17T11:55:39.263Z,20.3
2023-08-17T11:56:52.380Z,20.3
2023-08-17T11:58:09.702Z,20.3
2023-08-17T11:59:18.209Z,20.3
2023-08-17T12:00:31.393Z,20.4
2023-08-17T12:01:44.236Z,20.6
2023-08-17T12:02:57.480Z,20.6
2023-08-17T12:04:10.433Z,20.6
2023-08-17T12:05:23.358Z,20.6
2023-08-17T12:06:36.273Z,20.6
2023-08-17T12:07:49.228Z,20.6
2023-08-17T12:09:02.231Z,20.6
2023-08-17T12:10:15.357Z,20.6
2023-08-17T12:11:28.165Z,20.7
2023-08-17T12:12:41.215Z,20.7
2023-08-17T12:13:54.548Z,20.7
2023-08-17T12:15:07.192Z,20.7
2023-08-17T12:16:20.290Z,20.7
2023-08-17T12:17:33.438Z,20.7
2023-08-17T12:18:46.212Z,20.9
2023-08-17T12:19:59.257Z,20.9
2023-08-17T12:21:12.247Z,20.9
2023-08-17T12:22:25.418Z,20.9
2023-08-17T12:23:38.235Z,20.9
2023-08-17T12:24:51.197Z,20.9
2023-08-17T12:26:04.258Z,20.9
2023-08-17T12:27:17.283Z,20.9
2023-08-17T12:28:30.183Z,20.9
2023-08-17T12:29:43.364Z,20.9
2023-08-17T12:30:56.335Z,20.9
2023-08-17T12:32:09.210Z,20.9
2023-08-17T12:33:22.408Z,20.9
2023-08-17T12:34:35.219Z,20.9
2023-08-17T12:35:48.229Z,20.9
2023-08-17T12:37:01.203Z,21.1
2023-08-17T12:38:14.202Z,21.1
2023-08-17T12:39:27.292Z,21.1
2023-08-17T12:40:40.218Z,21.1
2023-08-17T12:41:53.344Z,21.1
2023-08-17T12:43:06.216Z,21
2023-08-17T12:44:19.218Z,21.1
2023-08-17T12:45:32.211Z,21.1
2023-08-17T12:46:45.249Z,21.1
2023-08-17T12:47:58.230Z,21.1
2023-08-17T12:49:12.294Z,21
2023-08-17T12:50:24.227Z,21
2023-08-17T12:51:37.210Z,21
2023-08-17T12:52:50.362Z,21
2023-08-17T12:54:02.910Z,21.2
2023-08-17T12:55:16.235Z,21.1
2023-08-17T12:56:29.254Z,21
2023-08-17T12:57:42.405Z,21
2023-08-17T12:58:55.283Z,21
2023-08-17T13:00:08.212Z,21
2023-08-17T13:01:21.359Z,21
2023-08-17T13:02:34.257Z,21
2023-08-17T13:03:47.349Z,21
2023-08-17T13:05:00.446Z,21
2023-08-17T13:06:13.183Z,21
2023-08-17T13:07:26.268Z,21.1
2023-08-17T13:08:39.273Z,21.1
2023-08-17T13:09:52.336Z,21.1
2023-08-17T13:11:05.287Z,21.1
2023-08-17T13:12:18.316Z,21.1
2023-08-17T13:13:31.205Z,21.1
2023-08-17T13:14:43.942Z,21.1
2023-08-17T13:15:57.204Z,21.1
2023-08-17T13:17:10.272Z,20.9
2023-08-17T13:18:23.221Z,20.9
2023-08-17T13:19:36.280Z,20.9
2023-08-17T13:20:49.825Z,20.9
2023-08-17T13:22:02.204Z,21.1
2023-08-17T13:23:15.198Z,21.1
2023-08-17T13:24:28.211Z,21.1
2023-08-17T13:25:41.238Z,21.1
2023-08-17T13:26:54.252Z,21.1
2023-08-17T13:28:07.191Z,21.1
2023-08-17T13:29:20.280Z,21.1
2023-08-17T13:30:33.286Z,21.1
2023-08-17T13:31:46.192Z,21
2023-08-17T13:32:59.365Z,21
2023-08-17T13:34:12.252Z,21
2023-08-17T13:35:25.243Z,21
2023-08-17T13:36:38.281Z,21
2023-08-17T13:37:51.185Z,21
2023-08-17T13:39:04.330Z,21.1
2023-08-17T13:40:17.221Z,21.2
2023-08-17T13:41:30.206Z,21.2
2023-08-17T13:42:43.187Z,21.2
2023-08-17T13:43:57.097Z,21.2
2023-08-17T13:45:09.131Z,21.2
2023-08-17T13:46:22.196Z,21.2
2023-08-17T13:47:35.301Z,21.2
2023-08-17T13:48:48.165Z,21.2
2023-08-17T13:50:01.136Z,21.2
2023-08-17T13:51:14.177Z,21.2
2023-08-17T13:52:27.424Z,21.2
2023-08-17T13:53:40.149Z,21.2
2023-08-17T13:54:53.246Z,21.2
2023-08-17T13:56:06.223Z,21.2
2023-08-17T13:57:19.342Z,21.2
2023-08-17T13:58:32.203Z,21.2
2023-08-17T13:59:45.193Z,21.3
2023-08-17T14:00:58.364Z,21.4
2023-08-17T14:02:11.179Z,21.4
2023-08-17T14:03:24.314Z,21.4
2023-08-17T14:04:37.293Z,21.4
2023-08-17T14:05:50.258Z,21.4
2023-08-17T14:07:03.260Z,21.4
2023-08-17T14:08:16.280Z,21.4
2023-08-17T14:09:29.294Z,21.4
2023-08-17T14:10:42.382Z,21.4
2023-08-17T14:11:55.221Z,21.4
2023-08-17T14:13:08.177Z,21.4
2023-08-17T14:14:20.919Z,21.4
2023-08-17T14:15:34.196Z,21.4
2023-08-17T14:16:47.271Z,21.4
2023-08-17T14:18:00.428Z,21.4
2023-08-17T14:19:12.930Z,21.4
2023-08-17T14:20:26.215Z,21.3
2023-08-17T14:21:39.179Z,21.3
2023-08-17T14:22:52.166Z,21.3
2023-08-17T14:24:05.180Z,21.3
2023-08-17T14:25:18.191Z,21.3
2023-08-17T14:26:32.989Z,21.3
2023-08-17T14:27:44.268Z,21.4
2023-08-17T14:28:57.268Z,21.6
2023-08-17T14:30:10.173Z,21.6
2023-08-17T14:31:23.253Z,21.6
2023-08-17T14:32:36.330Z,21.6
2023-08-17T14:33:49.284Z,21.6
2023-08-17T14:35:01.874Z,21.6
2023-08-17T14:36:19.473Z,21.6
2023-08-17T14:37:28.541Z,21.6
2023-08-17T14:38:41.143Z,21.6
2023-08-17T14:39:54.384Z,21.6
2023-08-17T14:41:07.314Z,21.6
2023-08-17T14:42:20.308Z,21.6
2023-08-17T14:43:33.233Z,21.6
2023-08-17T14:44:46.211Z,21.6
2023-08-17T14:45:59.291Z,21.6
2023-08-17T14:47:12.848Z,21.6
2023-08-17T14:48:25.241Z,21.6
2023-08-17T14:49:38.320Z,21.6
2023-08-17T14:50:51.158Z,21.6
2023-08-17T14:52:04.199Z,21.6
2023-08-17T14:53:17.215Z,21.6
2023-08-17T14:54:30.904Z,21.6
2023-08-17T14:55:43.313Z,21.6
2023-08-17T14:56:57.812Z,21.6
2023-08-17T14:58:09.137Z,21.6
2023-08-17T14:59:22.384Z,21.6
2023-08-17T15:00:35.188Z,21.6
2023-08-17T15:01:48.230Z,21.6
2023-08-17T15:03:01.225Z,21.6
2023-08-17T15:04:14.231Z,21.6
2023-08-17T15:05:28.629Z,21.6
2023-08-17T15:07:53.309Z,21.6
2023-08-17T15:09:06.356Z,21.7
2023-08-17T15:10:19.293Z,21.8
2023-08-17T15:11:32.202Z,21.8
2023-08-17T15:12:45.129Z,21.8
2023-08-17T15:13:58.197Z,21.6
2023-08-17T15:15:11.261Z,21.6
2023-08-17T15:16:24.990Z,21.6
2023-08-17T15:17:37.275Z,21.6
2023-08-17T15:18:50.156Z,21.6
2023-08-17T15:20:03.176Z,21.6
2023-08-17T15:21:16.171Z,21.6
2023-08-17T15:22:29.190Z,21.6
2023-08-17T15:23:42.206Z,21.6
2023-08-17T15:24:55.247Z,21.6
2023-08-17T15:26:08.179Z,21.6
2023-08-17T15:27:21.230Z,21.6
2023-08-17T15:28:34.274Z,21.6
2023-08-17T15:29:47.169Z,21.6
2023-08-17T15:31:00.226Z,21.6
2023-08-17T15:32:13.173Z,21.6
2023-08-17T15:33:26.241Z,21.6
2023-08-17T15:34:39.225Z,21.6
2023-08-17T15:35:52.162Z,21.3
2023-08-17T15:37:05.192Z,21.3
2023-08-17T15:38:18.287Z,21.4
2023-08-17T15:39:31.148Z,21.4
2023-08-17T15:40:44.211Z,21.4
2023-08-17T15:41:57.212Z,21.4
2023-08-17T15:43:10.212Z,21.4
2023-08-17T15:44:23.222Z,21.4
2023-08-17T15:45:36.184Z,21.2
2023-08-17T15:46:49.149Z,21.2
2023-08-17T15:48:02.190Z,21.2
2023-08-17T15:49:15.171Z,21.2
2023-08-17T15:50:28.164Z,21.2
2023-08-17T15:51:41.190Z,21.2
2023-08-17T15:52:54.169Z,21.2
2023-08-17T15:54:07.185Z,21.2
2023-08-17T15:55:20.242Z,21.2
2023-08-17T15:56:33.120Z,21.2
2023-08-17T15:57:46.269Z,21.2
2023-08-17T15:58:59.068Z,21.2
2023-08-17T16:00:12.070Z,21.3
2023-08-17T16:01:25.204Z,21.3
2023-08-17T16:02:38.223Z,21.1
2023-08-17T16:03:51.214Z,21.1
2023-08-17T16:05:04.328Z,21.1
2023-08-17T16:06:17.242Z,21.1
2023-08-17T16:07:30.480Z,21.1
2023-08-17T16:08:48.994Z,21.1
2023-08-17T16:09:56.287Z,21.1
2023-08-17T16:11:09.295Z,21.1
2023-08-17T16:12:22.092Z,21.1
2023-08-17T16:13:35.215Z,21.1
2023-08-17T16:14:49.903Z,21.1
2023-08-17T16:16:01.185Z,21.1
2023-08-17T16:17:14.265Z,21.1
2023-08-17T16:18:27.215Z,21.1
2023-08-17T16:19:40.322Z,21.1
2023-08-17T16:20:53.194Z,21.1